To NAV CANADA Home Page Login to a new session Search on AWWS site Disclaimer Vers la page française équivalente Tips FAQ What's new on the site To the Forecasts and Observations / NOTAM section To "File a Flight Plan" website Publications and other links Update of the User's profile FIC Telephone Numbers My Weather Data Folder Route Weather Data Regional Weather Data Local Weather Data To the Forecasts and Observations / NOTAM section
Request Generated 07/10/2020 at 13:29:21 UTC . Weather information available at that time is displayed.


Go to a specific product

Save this request

NOTAM

NOTAM


SIGMET
To the Product Selector

SIGMETS GFACN32

WSCN32 CWEG 100823
SIGMET I9 VALID 100820/100950 CWEG-
CZEG EDMONTON FIR CNCL SIGMET I8 100550/100950
RMK GFACN32
END/WSCN22/CWAO



AIRMET
To the Product Selector

AIRMETS GFACN32

GFACN32 - No AIRMET bulletins in effect



PIREP
To the Product Selector

FIR_WINNIPEG (WG)


UACN10 CYQT 101022
WG
UA /OV CYIV /TM 1020 /FLDURD /TP BE20 /SK 011OVC


METAR/TAF
To the Product Selector

REGINA INTL/SK    

METAR CYQR 101300Z 11005KT 15SM FEW260 13/11 A2998 RMK CI1 CI TR SLP160 DENSITY ALT 2100FT=
METAR CYQR 101200Z 11006KT 15SM FEW260 11/10 A2998 RMK CI1 CI TR SLP161=
METAR CYQR 101100Z 12006KT 15SM FEW260 09/09 A2998 RMK CI1 CI TR SLP162=

TAF CYQR 101138Z 1012/1112 12006KT P6SM SKC
FM101700 12010KT P6SM SCT100 BKN200
FM102000 34012G22KT P6SM FEW040 BKN100 TEMPO 1020/1104 5SM -SHRA
BR OVC040 PROB30 1021/1103 VRB20G35KT 2SM TSRA OVC040CB
FM110500 24008KT P6SM SCT400 TEMPO 1105/1112 BKN040
BECMG 1107/1109 30010KT
RMK NXT FCST BY 101800Z=

MOOSE JAW/AIR VICE MARSHAL C.M. MCEWEN/SK    

METAR CYMJ 101300Z 09004KT 15SM FEW090 BKN260 15/12 A2995 RMK AC1CI4 SLP148=
METAR CYMJ 101200Z 19008KT 15SM FEW090 SCT260 12/10 A2996 RMK AC1CI2 SLP150=
METAR CYMJ 101100Z 19009KT 15SM FEW090 FEW300 12/10 A2996 RMK AC1CI2 FST OBS SLP150=

TAF CYMJ 101215Z 1012/1024 18010KT P6SM FEW090 SCT260
FM101800 22015KT P6SM FEW040 BKN090 OVC140 TEMPO 1018/1022 5SM
-SHRA BR BKN040 OVC090 PROB30 1018/1022 VRB20G30KT 1SM TSRA
OVC040CB
FM102200 26012KT P6SM BKN050 TEMPO 1022/1024 6SM -SHRA PROB30
1022/1024 VRB20G30KT 2SM TSRA OVC050CB
RMK NXT FCST BY 101800Z=


RADAR PCPN RATE
To the Product Selector
Pacific Canada      Western Canada     

SATELLITE VISIBLE
To the Product Selector
West Canada      

SATELLITE INFRARED
To the Product Selector
West Canada     

GRAPHICAL FA CLOUDS & WEATHER FORECASTS
To the Product Selector
Graphical FA gfacn32      

GRAPHICAL FA ICING, TURBULENCE & FREEZING LEVEL FORECASTS
To the Product Selector
Graphical FA gfacn32      

FDTEXT Low Level FD. Temperatures are not forecast for the 3,000-foot level.
To the Product Selector
STN YQR - REGINA. SASK for use 3000 6000 9000 12000 18000
FDCN01 CWAO FCST BASED ON 100000 DATA VALID 100600 05-09 2911+09 3020+06 3024+01 2822-11
FDCN02 CWAO FCST BASED ON 100000 DATA VALID 101200 09-18 2815+12 2820+05 2827+02 2731-11
FDCN03 CWAO FCST BASED ON 100000 DATA VALID 110000 18-05 2714+09 1810+05 2025+00 2426-10



Your time UTC time
Weather data provided by Environment Canada and NAV CANADA